ETOU/WIE METAR and TAF weather

Enter ICAO airport designator
Station Type Date Time Source
ETOU METAR 2021/04/18 00:56 UTC NOAA

ETOU 180056Z AUTO 00000KT 9999 OVC045 08/00 A3014 RMK AO2 SLP212 T00780000 $


Station Type Date Time Source
ETOU Decoded METAR 2021/04/18 00:56 UTC NOAA

Wiesbaden, Germany (ETOU) 50-03N 008-20E
Apr 17, 2021 - 08:56 PM EDT / 2021.04.18 0056 UTC
Wind: Calm:0
Visibility: greater than 7 mile(s):0
Sky conditions: overcast
Temperature: 46.0 F (7.8 C)
Dew Point: 32.0 F (0.0 C)
Relative Humidity: 57%
Pressure (altimeter): 30.14 in. Hg (1020 hPa)
ob: ETOU 180056Z AUTO 00000KT 9999 OVC045 08/00 A3014 RMK AO2 SLP212 T00780000
cycle: 1

Station Type Date Time Source
ETOU TAF 2021/04/17 08:03 UTC NOAA

TAF TAF
AMD ETOU 170800Z 1708/1808 35003KT 9999 BKN070 QNH3027INS
BECMG 1713/1714 03006KT 9999 BKN045 QNH3022INS
BECMG 1806/1807 VRB03KT 9999 BKN020 QNH3018INS TX12/1715Z TN00/1802Z LAST NO
AMDS AFT 1710 NEXT 1809

Example: see airport list